Time;durP1;ratioP1;P1;durP2;ratioP2;P2;SDS_P1;SDS_P2;PMS_P1;PMS_P2;Temp;Humidity;BMP_temperature;BMP_pressure;BME280_temperature;BME280_humidity;BME280_pressure;Samples;Min_cycle;Max_cycle;Signal;HPM_P1;HPM_P2
2021/12/13 00:00:47;;;;;;;0.50;0.50;;;;;;;;;;5051670;28;20610;-64
2021/12/13 00:03:28;;;;;;;0.50;0.50;;;;;;;;;;5051458;28;20205;-64
2021/12/13 00:05:58;;;;;;;0.50;0.50;;;;;;;;;;5051447;28;20234;-64
2021/12/13 00:08:31;;;;;;;0.60;0.60;;;;;;;;;;5051485;28;20172;-64
2021/12/13 00:11:01;;;;;;;0.50;0.50;;;;;;;;;;5051461;28;20202;-64
2021/12/13 00:13:30;;;;;;;0.40;0.40;;;;;;;;;;5050134;28;20611;-64
2021/12/13 00:15:59;;;;;;;0.40;0.40;;;;;;;;;;5051288;28;20202;-64
2021/12/13 00:18:36;;;;;;;0.50;0.50;;;;;;;;;;5051307;28;20209;-65
2021/12/13 00:21:08;;;;;;;0.40;0.40;;;;;;;;;;5051223;28;20174;-64
2021/12/13 00:23:54;;;;;;;0.50;0.50;;;;;;;;;;5051378;28;20198;-64
2021/12/13 00:26:40;;;;;;;0.40;0.40;;;;;;;;;;5051280;28;20645;-64
2021/12/13 00:29:13;;;;;;;0.50;0.50;;;;;;;;;;5051373;28;20538;-65
2021/12/13 00:31:47;;;;;;;0.50;0.50;;;;;;;;;;5053054;28;20186;-64
2021/12/13 00:34:19;;;;;;;0.40;0.40;;;;;;;;;;5055146;28;20198;-64
2021/12/13 00:36:47;;;;;;;0.50;0.50;;;;;;;;;;5055218;28;20182;-64
2021/12/13 00:39:22;;;;;;;0.40;0.40;;;;;;;;;;5055272;28;20194;-65
2021/12/13 00:41:49;;;;;;;0.50;0.50;;;;;;;;;;5055017;28;20211;-64
2021/12/13 00:44:18;;;;;;;0.50;0.50;;;;;;;;;;5054983;28;20206;-64
2021/12/13 00:46:44;;;;;;;0.40;0.40;;;;;;;;;;5055101;28;20182;-64
2021/12/13 00:49:11;;;;;;;0.43;0.43;;;;;;;;;;5053724;28;20221;-64
2021/12/13 00:51:43;;;;;;;0.50;0.50;;;;;;;;;;5054755;28;20232;-64
2021/12/13 00:54:20;;;;;;;0.40;0.40;;;;;;;;;;5053687;28;20546;-64
2021/12/13 00:56:46;;;;;;;0.50;0.50;;;;;;;;;;5054950;28;20179;-64
2021/12/13 00:59:14;;;;;;;0.50;0.50;;;;;;;;;;5054965;28;20267;-65
2021/12/13 01:01:41;;;;;;;0.40;0.40;;;;;;;;;;5054417;28;20870;-64
2021/12/13 01:04:10;;;;;;;0.40;0.40;;;;;;;;;;5054639;28;20788;-64
2021/12/13 01:07:11;;;;;;;0.40;0.40;;;;;;;;;;5054656;28;20220;-65
2021/12/13 01:09:56;;;;;;;0.40;0.40;;;;;;;;;;5012327;28;20235;-65
2021/12/13 01:12:23;;;;;;;0.40;0.40;;;;;;;;;;5051103;28;20184;-65
2021/12/13 01:14:59;;;;;;;0.40;0.40;;;;;;;;;;5054610;28;20203;-64
2021/12/13 01:20:17;;;;;;;0.50;0.50;;;;;;;;;;5054554;28;20260;-65
2021/12/13 01:22:56;;;;;;;0.50;0.50;;;;;;;;;;5054420;28;20568;-64
2021/12/13 01:28:25;;;;;;;0.50;0.50;;;;;;;;;;5054337;28;20180;-64
2021/12/13 01:30:54;;;;;;;0.40;0.40;;;;;;;;;;5053336;28;20257;-64
2021/12/13 01:33:20;;;;;;;0.60;0.60;;;;;;;;;;5054167;28;20175;-64
2021/12/13 01:35:47;;;;;;;0.40;0.40;;;;;;;;;;5054190;28;20214;-63
2021/12/13 01:38:31;;;;;;;0.50;0.50;;;;;;;;;;5052762;28;20173;-64
2021/12/13 01:40:59;;;;;;;0.40;0.40;;;;;;;;;;5053999;28;20170;-64
2021/12/13 01:43:27;;;;;;;0.40;0.40;;;;;;;;;;5052626;28;20195;-64
2021/12/13 01:45:54;;;;;;;0.40;0.40;;;;;;;;;;5053894;28;20210;-63
2021/12/13 01:48:25;;;;;;;0.45;0.45;;;;;;;;;;5053937;28;20175;-64
2021/12/13 01:50:53;;;;;;;0.50;0.50;;;;;;;;;;5053647;28;20168;-64
2021/12/13 01:53:34;;;;;;;0.50;0.50;;;;;;;;;;5053984;28;20581;-64
2021/12/13 01:56:09;;;;;;;0.40;0.40;;;;;;;;;;5053803;28;20198;-64
2021/12/13 01:58:41;;;;;;;0.50;0.50;;;;;;;;;;5053966;28;20648;-64
2021/12/13 02:01:10;;;;;;;0.40;0.40;;;;;;;;;;5053607;28;20658;-64
2021/12/13 02:03:48;;;;;;;0.40;0.40;;;;;;;;;;5052404;28;20803;-65
2021/12/13 02:06:21;;;;;;;0.40;0.40;;;;;;;;;;5053920;28;20246;-65
2021/12/13 02:08:50;;;;;;;0.50;0.50;;;;;;;;;;5053626;28;20185;-65
2021/12/13 02:11:17;;;;;;;0.40;0.40;;;;;;;;;;5053358;28;20186;-64
2021/12/13 02:14:03;;;;;;;0.40;0.40;;;;;;;;;;5053230;28;20645;-65
2021/12/13 02:19:21;;;;;;;0.40;0.40;;;;;;;;;;5053726;28;20185;-64
2021/12/13 02:21:50;;;;;;;0.40;0.40;;;;;;;;;;5053117;28;20205;-64
2021/12/13 02:24:16;;;;;;;0.40;0.40;;;;;;;;;;5053167;28;20203;-64
2021/12/13 02:26:47;;;;;;;0.40;0.40;;;;;;;;;;5051889;28;20178;-64
2021/12/13 02:29:22;;;;;;;0.40;0.40;;;;;;;;;;5053275;28;20508;-64
2021/12/13 02:31:48;;;;;;;0.50;0.50;;;;;;;;;;5051704;28;20182;-64
2021/12/13 02:34:16;;;;;;;0.40;0.40;;;;;;;;;;5051832;28;20198;-65
2021/12/13 02:36:47;;;;;;;0.40;0.40;;;;;;;;;;5052940;28;20175;-64
2021/12/13 02:39:16;;;;;;;0.50;0.50;;;;;;;;;;5053104;28;20172;-64
2021/12/13 02:41:42;;;;;;;0.40;0.40;;;;;;;;;;5052700;28;20210;-64
2021/12/13 02:46:39;;;;;;;0.50;0.50;;;;;;;;;;5106062;22;20226;-66
2021/12/13 02:49:07;;;;;;;0.50;0.50;;;;;;;;;;5094702;28;20237;-66
2021/12/13 02:51:44;;;;;;;0.50;0.50;;;;;;;;;;5093128;28;20688;-65
2021/12/13 02:54:10;;;;;;;0.50;0.50;;;;;;;;;;5092450;28;20720;-65
2021/12/13 02:56:38;;;;;;;0.40;0.40;;;;;;;;;;5092868;28;20189;-66
2021/12/13 02:59:05;;;;;;;0.50;0.50;;;;;;;;;;5092882;28;20861;-65
2021/12/13 03:01:37;;;;;;;0.40;0.40;;;;;;;;;;5092497;28;20174;-65
2021/12/13 03:04:08;;;;;;;0.50;0.50;;;;;;;;;;5092850;28;20536;-65
2021/12/13 03:06:35;;;;;;;0.40;0.40;;;;;;;;;;5092949;28;20275;-65
2021/12/13 03:09:21;;;;;;;0.50;0.50;;;;;;;;;;5092834;28;20248;-65
2021/12/13 03:11:48;;;;;;;0.50;0.50;;;;;;;;;;5074079;28;20256;-66
2021/12/13 03:14:17;;;;;;;0.40;0.40;;;;;;;;;;5092616;28;20188;-64
2021/12/13 03:16:56;;;;;;;0.50;0.50;;;;;;;;;;5092560;28;20222;-65
2021/12/13 03:19:40;;;;;;;0.50;0.50;;;;;;;;;;5092757;28;20657;-67
2021/12/13 03:22:25;;;;;;;0.40;0.40;;;;;;;;;;5092208;28;20213;-65
2021/12/13 03:25:11;;;;;;;0.50;0.50;;;;;;;;;;5092296;28;20193;-66
2021/12/13 03:27:56;;;;;;;0.60;0.60;;;;;;;;;;5075197;28;20199;-65
2021/12/13 03:30:24;;;;;;;0.40;0.40;;;;;;;;;;5092130;28;20443;-65
2021/12/13 03:32:53;;;;;;;0.40;0.40;;;;;;;;;;5092261;28;20224;-66
2021/12/13 03:35:23;;;;;;;0.40;0.40;;;;;;;;;;5092177;28;20205;-65
2021/12/13 03:38:02;;;;;;;0.40;0.40;;;;;;;;;;5074089;28;20238;-66
2021/12/13 03:40:29;;;;;;;0.57;0.57;;;;;;;;;;5091946;28;20185;-66
2021/12/13 03:42:56;;;;;;;0.40;0.40;;;;;;;;;;5092144;28;20198;-66
2021/12/13 03:45:26;;;;;;;0.40;0.40;;;;;;;;;;5092243;28;20676;-66
2021/12/13 03:47:55;;;;;;;0.50;0.50;;;;;;;;;;5092307;28;20633;-64
2021/12/13 03:50:23;;;;;;;0.50;0.50;;;;;;;;;;5092100;28;20696;-65
2021/12/13 03:52:51;;;;;;;0.50;0.50;;;;;;;;;;5092148;28;20663;-66
2021/12/13 03:55:19;;;;;;;0.40;0.40;;;;;;;;;;5092075;28;20198;-65
2021/12/13 03:57:47;;;;;;;0.47;0.47;;;;;;;;;;5074179;28;20541;-65
2021/12/13 04:00:15;;;;;;;0.50;0.50;;;;;;;;;;5091815;28;20188;-65
2021/12/13 04:02:41;;;;;;;0.50;0.50;;;;;;;;;;5091919;28;20331;-66
2021/12/13 04:05:10;;;;;;;0.40;0.40;;;;;;;;;;5091346;28;20219;-65
2021/12/13 04:07:38;;;;;;;0.40;0.40;;;;;;;;;;5091466;28;20177;-66
2021/12/13 04:10:24;;;;;;;0.40;0.40;;;;;;;;;;5091633;28;20180;-65
2021/12/13 04:12:53;;;;;;;0.40;0.40;;;;;;;;;;5091502;28;20188;-66
2021/12/13 04:15:29;;;;;;;0.40;0.40;;;;;;;;;;5094327;28;20196;-64
2021/12/13 04:18:00;;;;;;;0.40;0.40;;;;;;;;;;5092054;28;20263;-65
2021/12/13 04:20:31;;;;;;;0.50;0.50;;;;;;;;;;5091896;28;20177;-66
2021/12/13 04:23:01;;;;;;;0.40;0.40;;;;;;;;;;5091668;28;20295;-66
2021/12/13 04:25:30;;;;;;;0.40;0.40;;;;;;;;;;5091718;28;20230;-66
2021/12/13 04:27:56;;;;;;;0.40;0.40;;;;;;;;;;5091561;28;20189;-65
2021/12/13 04:30:30;;;;;;;0.50;0.50;;;;;;;;;;5091310;28;20610;-66
2021/12/13 04:32:59;;;;;;;0.50;0.50;;;;;;;;;;5091620;28;20170;-66
2021/12/13 04:35:26;;;;;;;0.40;0.40;;;;;;;;;;5091495;28;20194;-65
2021/12/13 04:37:54;;;;;;;0.40;0.40;;;;;;;;;;5091550;28;20177;-65
2021/12/13 04:40:23;;;;;;;0.40;0.40;;;;;;;;;;5091317;28;20202;-65
2021/12/13 04:42:50;;;;;;;0.40;0.40;;;;;;;;;;5091241;28;20206;-65
2021/12/13 04:45:17;;;;;;;0.40;0.40;;;;;;;;;;5091327;28;20630;-66
2021/12/13 04:47:55;;;;;;;0.40;0.40;;;;;;;;;;5091380;28;20169;-66
2021/12/13 04:50:27;;;;;;;0.50;0.50;;;;;;;;;;5091298;28;20295;-65
2021/12/13 04:52:53;;;;;;;0.40;0.40;;;;;;;;;;5091349;28;20174;-65
2021/12/13 04:55:51;;;;;;;0.40;0.40;;;;;;;;;;5091171;28;20209;-66
2021/12/13 04:58:18;;;;;;;0.40;0.40;;;;;;;;;;5035916;28;20197;-66
2021/12/13 05:00:46;;;;;;;0.50;0.50;;;;;;;;;;5091088;28;20170;-66
2021/12/13 05:03:14;;;;;;;0.40;0.40;;;;;;;;;;5091237;28;20617;-65
2021/12/13 05:05:40;;;;;;;0.40;0.40;;;;;;;;;;5091158;28;20557;-65
2021/12/13 05:08:08;;;;;;;0.40;0.40;;;;;;;;;;5073134;28;20196;-66
2021/12/13 05:10:35;;;;;;;0.40;0.40;;;;;;;;;;5091312;28;20640;-66
2021/12/13 05:13:17;;;;;;;0.40;0.40;;;;;;;;;;5091159;28;20198;-65
2021/12/13 05:15:44;;;;;;;0.40;0.40;;;;;;;;;;5091165;28;20193;-65
2021/12/13 05:18:19;;;;;;;0.50;0.50;;;;;;;;;;5093689;28;20661;-66
2021/12/13 05:20:45;;;;;;;0.50;0.50;;;;;;;;;;5094582;28;20192;-66
2021/12/13 05:23:13;;;;;;;0.40;0.40;;;;;;;;;;5094641;28;20205;-66
2021/12/13 05:25:39;;;;;;;0.40;0.40;;;;;;;;;;5091297;28;20197;-66
2021/12/13 05:28:12;;;;;;;0.50;0.50;;;;;;;;;;5085502;28;20190;-66
2021/12/13 05:30:43;;;;;;;0.50;0.50;;;;;;;;;;5073979;28;20409;-65
2021/12/13 05:33:10;;;;;;;0.40;0.40;;;;;;;;;;5090223;28;20187;-66
2021/12/13 05:35:43;;;;;;;0.40;0.40;;;;;;;;;;5094352;28;20246;-66
2021/12/13 05:38:11;;;;;;;0.43;0.43;;;;;;;;;;5094544;28;20918;-66
2021/12/13 05:40:44;;;;;;;0.50;0.50;;;;;;;;;;5094217;28;20182;-66
2021/12/13 05:43:25;;;;;;;0.43;0.43;;;;;;;;;;5094041;28;20261;-65
2021/12/13 05:46:23;;;;;;;0.50;0.50;;;;;;;;;;5073955;28;20612;-65
2021/12/13 05:49:00;;;;;;;0.40;0.40;;;;;;;;;;5050616;28;20562;-65
2021/12/13 05:51:31;;;;;;;0.40;0.40;;;;;;;;;;5072740;28;20212;-65
2021/12/13 05:54:02;;;;;;;0.40;0.40;;;;;;;;;;5074905;28;20688;-65
2021/12/13 05:56:32;;;;;;;0.40;0.40;;;;;;;;;;5074813;28;20202;-66
2021/12/13 05:59:09;;;;;;;0.50;0.50;;;;;;;;;;5080487;28;20220;-66
2021/12/13 06:01:54;;;;;;;0.40;0.40;;;;;;;;;;5076960;28;20173;-65
2021/12/13 06:04:32;;;;;;;0.40;0.40;;;;;;;;;;5087175;28;20189;-65
2021/12/13 06:06:58;;;;;;;0.40;0.40;;;;;;;;;;5074817;28;20180;-64
2021/12/13 06:09:39;;;;;;;0.60;0.60;;;;;;;;;;5075828;28;20175;-65
2021/12/13 06:12:07;;;;;;;0.50;0.50;;;;;;;;;;5077195;28;20188;-66
2021/12/13 06:14:33;;;;;;;0.40;0.40;;;;;;;;;;5082307;28;20577;-66
2021/12/13 06:17:03;;;;;;;0.40;0.40;;;;;;;;;;5076987;28;20184;-65
2021/12/13 06:19:31;;;;;;;0.47;0.47;;;;;;;;;;5083435;28;20175;-66
2021/12/13 06:22:02;;;;;;;0.40;0.40;;;;;;;;;;5073295;28;20198;-65
2021/12/13 06:24:31;;;;;;;0.40;0.40;;;;;;;;;;5087402;28;20204;-66
2021/12/13 06:27:01;;;;;;;0.50;0.50;;;;;;;;;;5090555;28;20177;-66
2021/12/13 06:29:40;;;;;;;0.50;0.50;;;;;;;;;;5086287;28;20543;-66
2021/12/13 06:32:20;;;;;;;0.40;0.40;;;;;;;;;;5083821;28;20189;-66
2021/12/13 06:34:46;;;;;;;0.50;0.50;;;;;;;;;;5077150;28;20209;-66
2021/12/13 06:37:12;;;;;;;0.45;0.45;;;;;;;;;;5093498;28;20181;-65
2021/12/13 06:39:38;;;;;;;0.60;0.60;;;;;;;;;;5092351;28;20181;-65
2021/12/13 06:42:05;;;;;;;0.50;0.50;;;;;;;;;;5077369;28;20532;-64
2021/12/13 06:44:31;;;;;;;0.47;0.47;;;;;;;;;;5076702;28;20912;-66
2021/12/13 06:47:01;;;;;;;0.40;0.40;;;;;;;;;;5091036;28;20258;-65
2021/12/13 06:49:27;;;;;;;0.40;0.40;;;;;;;;;;5092747;28;20955;-63
2021/12/13 06:51:55;;;;;;;0.47;0.47;;;;;;;;;;5072902;28;20182;-65
2021/12/13 06:54:21;;;;;;;0.50;0.50;;;;;;;;;;5072602;28;20419;-65
2021/12/13 06:56:53;;;;;;;0.50;0.50;;;;;;;;;;5074416;28;20217;-65
2021/12/13 06:59:19;;;;;;;0.45;0.45;;;;;;;;;;5091890;28;20419;-64
2021/12/13 07:01:56;;;;;;;0.45;0.45;;;;;;;;;;5076159;28;20177;-64
2021/12/13 07:04:22;;;;;;;0.40;0.40;;;;;;;;;;5089711;28;20185;-65
2021/12/13 07:06:48;;;;;;;0.40;0.40;;;;;;;;;;5074389;28;20182;-65
2021/12/13 07:09:16;;;;;;;0.40;0.40;;;;;;;;;;5072351;28;20170;-65
2021/12/13 07:11:53;;;;;;;0.40;0.40;;;;;;;;;;5072015;28;20197;-64
2021/12/13 07:14:21;;;;;;;0.40;0.40;;;;;;;;;;5054494;28;20202;-64
2021/12/13 07:16:52;;;;;;;0.40;0.40;;;;;;;;;;5072390;28;20182;-64
2021/12/13 07:19:23;;;;;;;0.50;0.50;;;;;;;;;;5072263;28;20180;-65
2021/12/13 07:21:52;;;;;;;0.40;0.40;;;;;;;;;;5072278;28;20704;-64
2021/12/13 07:24:25;;;;;;;0.40;0.40;;;;;;;;;;5070657;28;20233;-65
2021/12/13 07:27:05;;;;;;;0.40;0.40;;;;;;;;;;5072094;28;20537;-64
2021/12/13 07:29:36;;;;;;;0.40;0.40;;;;;;;;;;5072123;28;20176;-65
2021/12/13 07:32:06;;;;;;;0.43;0.43;;;;;;;;;;5071786;28;20248;-64
2021/12/13 07:34:32;;;;;;;0.40;0.40;;;;;;;;;;5071984;28;20539;-64
2021/12/13 07:37:01;;;;;;;0.50;0.50;;;;;;;;;;5071913;28;20204;-64
2021/12/13 07:39:29;;;;;;;0.40;0.40;;;;;;;;;;5072001;28;20175;-67
2021/12/13 07:41:58;;;;;;;0.50;0.50;;;;;;;;;;5071662;28;20293;-64
2021/12/13 07:44:39;;;;;;;0.40;0.40;;;;;;;;;;5072172;28;20174;-66
2021/12/13 07:47:08;;;;;;;0.50;0.50;;;;;;;;;;5085535;28;20196;-65
2021/12/13 07:49:35;;;;;;;0.45;0.45;;;;;;;;;;5073887;28;20167;-65
2021/12/13 07:52:02;;;;;;;0.40;0.40;;;;;;;;;;5091942;28;20170;-66
2021/12/13 07:54:36;;;;;;;0.40;0.40;;;;;;;;;;5091899;28;20166;-66
2021/12/13 07:57:03;;;;;;;0.40;0.40;;;;;;;;;;5092387;28;20178;-65
2021/12/13 07:59:29;;;;;;;0.40;0.40;;;;;;;;;;5091863;28;20257;-65
2021/12/13 08:01:56;;;;;;;0.50;0.50;;;;;;;;;;5091479;28;20627;-64
2021/12/13 08:04:26;;;;;;;0.45;0.45;;;;;;;;;;5091862;28;20492;-64
2021/12/13 08:07:00;;;;;;;0.45;0.45;;;;;;;;;;5091767;28;20173;-65
2021/12/13 08:09:28;;;;;;;0.40;0.40;;;;;;;;;;5090576;28;20171;-65
2021/12/13 08:11:57;;;;;;;0.40;0.40;;;;;;;;;;5091947;28;20208;-65
2021/12/13 08:14:29;;;;;;;0.50;0.50;;;;;;;;;;5091494;28;20182;-65
2021/12/13 08:16:56;;;;;;;0.50;0.50;;;;;;;;;;5090873;28;20208;-65
2021/12/13 08:19:24;;;;;;;0.50;0.50;;;;;;;;;;5091675;28;20178;-65
2021/12/13 08:21:52;;;;;;;0.50;0.50;;;;;;;;;;5091470;28;20201;-65
2021/12/13 08:24:27;;;;;;;0.50;0.50;;;;;;;;;;5073618;28;20557;-65
2021/12/13 08:26:56;;;;;;;0.40;0.40;;;;;;;;;;5091324;28;20226;-66
2021/12/13 08:29:27;;;;;;;0.40;0.40;;;;;;;;;;5091033;28;20170;-65
2021/12/13 08:31:56;;;;;;;0.50;0.50;;;;;;;;;;5091712;28;20185;-66
2021/12/13 08:34:32;;;;;;;0.40;0.40;;;;;;;;;;5091441;28;20178;-65
2021/12/13 08:37:00;;;;;;;0.40;0.40;;;;;;;;;;5091582;28;20216;-65
2021/12/13 08:39:33;;;;;;;0.40;0.40;;;;;;;;;;5090948;28;20201;-65
2021/12/13 08:42:01;;;;;;;0.40;0.40;;;;;;;;;;5090966;28;20198;-65
2021/12/13 08:44:32;;;;;;;0.40;0.40;;;;;;;;;;5091081;28;20181;-66
2021/12/13 08:47:00;;;;;;;0.50;0.50;;;;;;;;;;5109018;22;20287;-63
2021/12/13 08:49:35;;;;;;;0.40;0.40;;;;;;;;;;5090542;28;20201;-64
2021/12/13 08:52:02;;;;;;;0.50;0.50;;;;;;;;;;5091768;28;20607;-63
2021/12/13 08:54:36;;;;;;;0.50;0.50;;;;;;;;;;5095105;28;20205;-63
2021/12/13 08:57:03;;;;;;;0.40;0.40;;;;;;;;;;5077298;28;20228;-63
2021/12/13 08:59:29;;;;;;;0.47;0.47;;;;;;;;;;5074822;28;20715;-63
2021/12/13 09:01:57;;;;;;;0.50;0.50;;;;;;;;;;5073969;28;20199;-63
2021/12/13 09:04:44;;;;;;;0.50;0.50;;;;;;;;;;5074538;28;20246;-64
2021/12/13 09:07:11;;;;;;;0.50;0.50;;;;;;;;;;5073870;28;20207;-63
2021/12/13 09:09:44;;;;;;;0.50;0.50;;;;;;;;;;5056860;28;20225;-63
2021/12/13 09:12:11;;;;;;;0.40;0.40;;;;;;;;;;5073880;28;20174;-63
2021/12/13 09:14:42;;;;;;;0.40;0.40;;;;;;;;;;5074584;28;20242;-64
2021/12/13 09:17:12;;;;;;;0.50;0.50;;;;;;;;;;5056349;28;20191;-63
2021/12/13 09:19:44;;;;;;;0.40;0.40;;;;;;;;;;5074568;28;20173;-63
2021/12/13 09:22:13;;;;;;;0.50;0.50;;;;;;;;;;5074192;28;20203;-63
2021/12/13 09:24:47;;;;;;;0.40;0.40;;;;;;;;;;5073912;28;20174;-63
2021/12/13 09:27:25;;;;;;;0.50;0.50;;;;;;;;;;5074285;28;20186;-63
2021/12/13 09:29:54;;;;;;;0.50;0.50;;;;;;;;;;5074014;28;20236;-63
2021/12/13 09:32:20;;;;;;;0.50;0.50;;;;;;;;;;5074063;28;20182;-63
2021/12/13 09:34:47;;;;;;;0.50;0.50;;;;;;;;;;5073722;28;20565;-63
2021/12/13 09:37:14;;;;;;;0.47;0.47;;;;;;;;;;5073963;28;20212;-64
2021/12/13 09:39:41;;;;;;;0.50;0.50;;;;;;;;;;5074121;28;20182;-63
2021/12/13 09:42:13;;;;;;;0.50;0.50;;;;;;;;;;5073810;28;20217;-63
2021/12/13 09:44:41;;;;;;;0.50;0.50;;;;;;;;;;5074017;28;20171;-63
2021/12/13 09:47:07;;;;;;;0.40;0.40;;;;;;;;;;5073529;28;20884;-63
2021/12/13 09:49:33;;;;;;;0.50;0.50;;;;;;;;;;5073860;28;20203;-64
2021/12/13 09:51:59;;;;;;;0.40;0.40;;;;;;;;;;5073572;28;20424;-64
2021/12/13 09:54:28;;;;;;;0.40;0.40;;;;;;;;;;5073769;28;20416;-64
2021/12/13 09:56:54;;;;;;;0.50;0.50;;;;;;;;;;5072735;28;20442;-63
2021/12/13 09:59:20;;;;;;;0.50;0.50;;;;;;;;;;5073723;28;20176;-63
2021/12/13 10:01:46;;;;;;;0.50;0.50;;;;;;;;;;5073517;28;20178;-63
2021/12/13 10:04:16;;;;;;;0.50;0.50;;;;;;;;;;5072575;28;20413;-63
2021/12/13 10:06:41;;;;;;;0.40;0.40;;;;;;;;;;5055653;28;20227;-63
2021/12/13 10:09:16;;;;;;;0.50;0.50;;;;;;;;;;5073793;28;20261;-63
2021/12/13 10:11:48;;;;;;;0.50;0.50;;;;;;;;;;5073436;28;20832;-64
2021/12/13 10:14:18;;;;;;;0.50;0.50;;;;;;;;;;5073646;28;20171;-63
2021/12/13 10:16:46;;;;;;;0.50;0.50;;;;;;;;;;5055484;28;20281;-63
2021/12/13 10:19:14;;;;;;;0.50;0.50;;;;;;;;;;5055530;28;20175;-63
2021/12/13 10:21:43;;;;;;;0.40;0.40;;;;;;;;;;5073224;28;20191;-64
2021/12/13 10:24:38;;;;;;;0.40;0.40;;;;;;;;;;5073434;28;20769;-64
2021/12/13 10:27:05;;;;;;;0.50;0.50;;;;;;;;;;5042431;28;20215;-64
2021/12/13 10:29:32;;;;;;;0.45;0.45;;;;;;;;;;5073202;28;20171;-63
2021/12/13 10:32:04;;;;;;;0.50;0.50;;;;;;;;;;5072839;28;20171;-64
2021/12/13 10:34:33;;;;;;;0.50;0.50;;;;;;;;;;5072910;28;20175;-63
2021/12/13 10:37:02;;;;;;;0.50;0.50;;;;;;;;;;5072969;28;20747;-64
2021/12/13 10:39:32;;;;;;;0.40;0.40;;;;;;;;;;5072888;28;20171;-63
2021/12/13 10:41:59;;;;;;;0.47;0.47;;;;;;;;;;5072598;28;20651;-63
2021/12/13 10:44:27;;;;;;;0.40;0.40;;;;;;;;;;5054900;28;20190;-63
2021/12/13 10:46:54;;;;;;;0.50;0.50;;;;;;;;;;5072682;28;20205;-63
2021/12/13 10:49:23;;;;;;;0.50;0.50;;;;;;;;;;5072754;28;20172;-64
2021/12/13 10:51:55;;;;;;;0.50;0.50;;;;;;;;;;5072061;28;20186;-64
2021/12/13 10:54:22;;;;;;;0.40;0.40;;;;;;;;;;5071942;28;20570;-64
2021/12/13 10:56:50;;;;;;;0.40;0.40;;;;;;;;;;5072404;28;20222;-63
2021/12/13 10:59:18;;;;;;;0.50;0.50;;;;;;;;;;5072645;28;20174;-63
2021/12/13 11:01:46;;;;;;;0.40;0.40;;;;;;;;;;5072359;28;20168;-63
2021/12/13 11:04:14;;;;;;;0.50;0.50;;;;;;;;;;5072460;28;20171;-63
2021/12/13 11:06:42;;;;;;;0.50;0.50;;;;;;;;;;5072291;28;20195;-63
2021/12/13 11:09:10;;;;;;;0.50;0.50;;;;;;;;;;5072368;28;20254;-63
2021/12/13 11:11:41;;;;;;;0.50;0.50;;;;;;;;;;5073185;28;20168;-64
2021/12/13 11:14:09;;;;;;;0.40;0.40;;;;;;;;;;5072614;28;20175;-63
2021/12/13 11:16:36;;;;;;;0.50;0.50;;;;;;;;;;5071936;28;20266;-63
2021/12/13 11:19:06;;;;;;;0.50;0.50;;;;;;;;;;5072099;28;20168;-63
2021/12/13 11:21:34;;;;;;;0.40;0.40;;;;;;;;;;5071807;28;20175;-63
2021/12/13 11:24:00;;;;;;;0.50;0.50;;;;;;;;;;5071983;28;20175;-63
2021/12/13 11:26:29;;;;;;;0.50;0.50;;;;;;;;;;5071877;28;20203;-63
2021/12/13 11:28:57;;;;;;;0.40;0.40;;;;;;;;;;5072009;28;20194;-64
2021/12/13 11:31:29;;;;;;;0.40;0.40;;;;;;;;;;5070930;28;20191;-64
2021/12/13 11:34:18;;;;;;;0.50;0.50;;;;;;;;;;5071846;28;20175;-64
2021/12/13 11:37:06;;;;;;;0.40;0.40;;;;;;;;;;5034183;28;20210;-63
2021/12/13 11:39:44;;;;;;;0.40;0.40;;;;;;;;;;5071888;28;20163;-63
2021/12/13 11:42:34;;;;;;;0.50;0.50;;;;;;;;;;5071495;28;20203;-64
2021/12/13 11:45:20;;;;;;;0.40;0.40;;;;;;;;;;5071635;28;20214;-63
2021/12/13 11:48:05;;;;;;;0.50;0.50;;;;;;;;;;5030768;28;20352;-63
2021/12/13 11:50:55;;;;;;;0.40;0.40;;;;;;;;;;5071747;28;20693;-63
2021/12/13 11:53:41;;;;;;;0.50;0.50;;;;;;;;;;5071810;28;20179;-63
2021/12/13 11:56:26;;;;;;;0.40;0.40;;;;;;;;;;5030787;28;20264;-63
2021/12/13 11:59:07;;;;;;;0.40;0.40;;;;;;;;;;5071580;28;20646;-63
2021/12/13 12:01:45;;;;;;;0.40;0.40;;;;;;;;;;5053555;28;20642;-63
2021/12/13 12:04:30;;;;;;;0.40;0.40;;;;;;;;;;5076537;28;20197;-64
2021/12/13 12:07:08;;;;;;;0.40;0.40;;;;;;;;;;5077837;28;20195;-63
2021/12/13 12:09:40;;;;;;;0.40;0.40;;;;;;;;;;5079795;28;20244;-63
2021/12/13 12:12:25;;;;;;;0.40;0.40;;;;;;;;;;5059809;28;20178;-64
2021/12/13 12:14:59;;;;;;;0.40;0.40;;;;;;;;;;5076500;28;20446;-63
2021/12/13 12:17:25;;;;;;;0.40;0.40;;;;;;;;;;5072386;28;20257;-64
2021/12/13 12:19:51;;;;;;;0.40;0.40;;;;;;;;;;5071681;28;20182;-64
2021/12/13 12:22:19;;;;;;;0.40;0.40;;;;;;;;;;5071390;28;20229;-63
2021/12/13 12:24:48;;;;;;;0.40;0.40;;;;;;;;;;5071494;28;20176;-63
2021/12/13 12:27:19;;;;;;;0.50;0.50;;;;;;;;;;5072809;28;20601;-63
2021/12/13 12:29:47;;;;;;;0.40;0.40;;;;;;;;;;5075436;28;20174;-64
2021/12/13 12:32:19;;;;;;;0.40;0.40;;;;;;;;;;5075172;28;20175;-63
2021/12/13 12:34:59;;;;;;;0.40;0.40;;;;;;;;;;5057645;28;20581;-63
2021/12/13 12:37:30;;;;;;;0.40;0.40;;;;;;;;;;5075438;28;20174;-63
2021/12/13 12:40:08;;;;;;;0.40;0.40;;;;;;;;;;5057315;28;20265;-63
2021/12/13 12:42:43;;;;;;;0.40;0.40;;;;;;;;;;5075032;28;20230;-63
2021/12/13 12:45:15;;;;;;;0.50;0.50;;;;;;;;;;5075016;28;20170;-64
2021/12/13 12:47:47;;;;;;;0.40;0.40;;;;;;;;;;5075291;28;20258;-63
2021/12/13 12:50:15;;;;;;;0.40;0.40;;;;;;;;;;5074575;28;20250;-63
2021/12/13 12:52:55;;;;;;;0.40;0.40;;;;;;;;;;5074901;28;20175;-63
2021/12/13 12:55:27;;;;;;;0.40;0.40;;;;;;;;;;5075452;28;20201;-63
2021/12/13 12:57:53;;;;;;;0.40;0.40;;;;;;;;;;5074036;28;20174;-63
2021/12/13 13:00:23;;;;;;;0.40;0.40;;;;;;;;;;5074788;28;20182;-63
2021/12/13 13:02:50;;;;;;;0.50;0.50;;;;;;;;;;5074704;28;20195;-63
2021/12/13 13:05:18;;;;;;;0.50;0.50;;;;;;;;;;5074702;28;20179;-63
2021/12/13 13:07:44;;;;;;;0.50;0.50;;;;;;;;;;5074701;28;20163;-64
2021/12/13 13:10:25;;;;;;;0.40;0.40;;;;;;;;;;5074834;28;20171;-64
2021/12/13 13:13:02;;;;;;;0.40;0.40;;;;;;;;;;5074330;28;20172;-64
2021/12/13 13:15:30;;;;;;;0.50;0.50;;;;;;;;;;5074659;28;20190;-63
2021/12/13 13:18:04;;;;;;;0.40;0.40;;;;;;;;;;5057399;28;20666;-63
2021/12/13 13:20:34;;;;;;;0.40;0.40;;;;;;;;;;5074821;28;20203;-64
2021/12/13 13:23:01;;;;;;;0.40;0.40;;;;;;;;;;5074378;28;20199;-63
2021/12/13 13:25:30;;;;;;;0.40;0.40;;;;;;;;;;5074488;28;20301;-63
2021/12/13 13:27:58;;;;;;;0.50;0.50;;;;;;;;;;5074577;28;20686;-63
2021/12/13 13:30:31;;;;;;;0.50;0.50;;;;;;;;;;5074410;28;20550;-63
2021/12/13 13:32:57;;;;;;;0.40;0.40;;;;;;;;;;5074423;28;20562;-63
2021/12/13 13:35:23;;;;;;;0.40;0.40;;;;;;;;;;5074235;28;20195;-62
2021/12/13 13:37:49;;;;;;;0.40;0.40;;;;;;;;;;5074245;28;20258;-63
2021/12/13 13:40:20;;;;;;;0.40;0.40;;;;;;;;;;5074165;28;20176;-64
2021/12/13 13:42:49;;;;;;;0.45;0.45;;;;;;;;;;5074578;28;20753;-64
2021/12/13 13:45:23;;;;;;;0.40;0.40;;;;;;;;;;5055936;28;20245;-63
2021/12/13 13:47:51;;;;;;;0.50;0.50;;;;;;;;;;5074002;28;20529;-63
2021/12/13 13:50:23;;;;;;;0.50;0.50;;;;;;;;;;5073880;28;20209;-63
2021/12/13 13:52:51;;;;;;;0.40;0.40;;;;;;;;;;5073939;28;20179;-64
2021/12/13 13:55:33;;;;;;;0.40;0.40;;;;;;;;;;5073872;28;20187;-63
2021/12/13 13:58:01;;;;;;;0.40;0.40;;;;;;;;;;5073864;28;20175;-64
2021/12/13 14:00:52;;;;;;;0.50;0.50;;;;;;;;;;5073488;28;20179;-64
2021/12/13 14:03:18;;;;;;;0.40;0.40;;;;;;;;;;5063915;28;20211;-64
2021/12/13 14:05:45;;;;;;;0.40;0.40;;;;;;;;;;5074013;28;20222;-63
2021/12/13 14:08:23;;;;;;;0.40;0.40;;;;;;;;;;5073924;28;20175;-64
2021/12/13 14:10:50;;;;;;;0.40;0.40;;;;;;;;;;5073427;28;20237;-64
2021/12/13 14:13:16;;;;;;;0.40;0.40;;;;;;;;;;5073698;28;20186;-64
2021/12/13 14:15:46;;;;;;;0.40;0.40;;;;;;;;;;5073713;28;20191;-64
2021/12/13 14:18:16;;;;;;;0.40;0.40;;;;;;;;;;5073675;28;20172;-64
2021/12/13 14:20:47;;;;;;;0.40;0.40;;;;;;;;;;5073467;28;20175;-64
2021/12/13 14:23:13;;;;;;;0.40;0.40;;;;;;;;;;5073439;28;20198;-64
2021/12/13 14:25:41;;;;;;;0.40;0.40;;;;;;;;;;5073636;28;20203;-65
2021/12/13 14:28:08;;;;;;;0.50;0.50;;;;;;;;;;5073360;28;20947;-64
2021/12/13 14:30:38;;;;;;;0.40;0.40;;;;;;;;;;5073056;28;20542;-64
2021/12/13 14:33:20;;;;;;;0.40;0.40;;;;;;;;;;5055501;28;20203;-63
2021/12/13 14:35:53;;;;;;;0.40;0.40;;;;;;;;;;5073044;28;20270;-64
2021/12/13 14:38:19;;;;;;;0.50;0.50;;;;;;;;;;5055373;28;20259;-64
2021/12/13 14:40:53;;;;;;;0.40;0.40;;;;;;;;;;5072870;28;20182;-64
2021/12/13 14:43:29;;;;;;;0.50;0.50;;;;;;;;;;5072986;28;20279;-64
2021/12/13 14:45:56;;;;;;;0.40;0.40;;;;;;;;;;5072782;28;20229;-64
2021/12/13 14:48:24;;;;;;;0.40;0.40;;;;;;;;;;5072942;28;20171;-64
2021/12/13 14:51:11;;;;;;;0.50;0.50;;;;;;;;;;5072039;28;20171;-63
2021/12/13 14:53:38;;;;;;;0.40;0.40;;;;;;;;;;5072940;28;20182;-64
2021/12/13 14:56:07;;;;;;;0.40;0.40;;;;;;;;;;5072745;28;20219;-64
2021/12/13 14:58:38;;;;;;;0.40;0.40;;;;;;;;;;5100772;22;20320;-64
2021/12/13 15:01:05;;;;;;;0.40;0.40;;;;;;;;;;5091172;28;20182;-67
2021/12/13 15:03:33;;;;;;;0.50;0.50;;;;;;;;;;5092808;28;20301;-64
2021/12/13 15:06:06;;;;;;;0.40;0.40;;;;;;;;;;5090619;28;20189;-65
2021/12/13 15:08:33;;;;;;;0.40;0.40;;;;;;;;;;5092477;28;20197;-63
2021/12/13 15:11:03;;;;;;;0.50;0.50;;;;;;;;;;5092675;28;20545;-64
2021/12/13 15:13:31;;;;;;;0.40;0.40;;;;;;;;;;5085773;28;20768;-67
2021/12/13 15:16:00;;;;;;;0.40;0.40;;;;;;;;;;5072341;28;20534;-67
2021/12/13 15:18:36;;;;;;;0.40;0.40;;;;;;;;;;5072243;28;20199;-66